Tiempo atmosférico en la estación meteorológica de Lleida, Lleida (192 m.)



Fecha
DESCASC
Temp. máxima en grados centígrados (hora)
DESCASC
Temp. mínima en grados centígrados (hora)
DESCASC
Temp. media en grados centígrados
DESCASC
Racha de viento máxima en m/sg (hora)
DESCASC
Velocidad máxima media en intervalos de 10 minutos(hora)
DESCASC
Precipitaciones diarias en mm
DESCASC
Precipitaciones de 00:00 a 06:00 en mm
DESCASC
Precipitaciones de 06:00 a 12:00 en mm
DESCASC
Precipitaciones de 12:00 a 18:00 en mm
DESCASC
Precipitaciones de 18:00 a 24:00 en mm
DESCASC
14-10-2019 23.3 (14:20) 15.6 (00:00) 19.4 12.5 (23:40) 6.67 (23:50) 4.6 0 0 1.6 3
02-10-2019 27.1 (16:10) 15.1 (00:00) 21.1 13.33 (18:30) 7.78 (16:40) 0 0 0 0 0
16-10-2019 22.1 (16:30) 8.4 (00:00) 15.3 5.83 (15:40) 3.33 (15:50) 0 0 0 0 0
15-10-2019 19.7 (16:30) 10.6 (00:00) 15.2 13.61 (12:40) 7.78 (13:10) 0 0 0 0 0
13-10-2019 29.4 (16:40) 18 (00:00) 23.7 6.94 (11:10) 4.17 (04:20) 0 0 0 0 0
12-10-2019 29.2 (14:40) 16.8 (00:00) 23 8.89 (15:10) 5 (15:00) 0 0 0 0 0
11-10-2019 27.5 (17:40) 11.6 (00:00) 19.6 5.28 (19:00) 3.06 (20:30) 0 0 0 0 0
10-10-2019 23.5 (17:40) 12.4 (00:00) 17.9 5 (00:30) 2.5 (00:20) 0 0 0 0 0
09-10-2019 26.2 (17:40) 15.2 (00:00) 20.7 6.67 (16:20) 3.61 (20:20) 0 0 0 0 0
08-10-2019 28.6 (17:50) 12.4 (00:00) 20.5 3.89 (06:20) 2.78 (07:00) 0 0 0 0 0
07-10-2019 25.9 (17:40) 12.5 (00:00) 19.2 10 (03:00) 5.83 (03:00) 0 0 0 0 0
06-10-2019 25.1 (17:30) 11.8 (00:00) 18.5 8.89 (19:00) 5 (22:10) 0 0 0 0 0
05-10-2019 26.6 (17:30) 11.7 (00:00) 19.2 6.39 (12:10) 3.33 (12:30) 0 0 0 0 0
04-10-2019 27.5 (18:20) 8.6 (00:00) 18.1 4.72 (23:59) 2.5 (23:50) 0 0 0 0 0
03-10-2019 25.3 (18:10) 10.4 (00:00) 17.8 7.22 (12:10) 5 (13:10) 0 0 0 0 0
17-09-2019 32.7 (17:10) 16.4 (00:00) 24.6 5 (14:40) 2.78 (14:40) 0 0 0 0 0
01-10-2019 29.7 (16:50) 13.8 (00:00) 21.8 9.44 (20:30) 5.56 (20:30) 0 0 0 0 0
30-09-2019 31.1 (17:20) 12.8 (00:00) 22 6.94 (19:00) 4.44 (19:00) 0 0 0 0 0
29-09-2019 30.6 (18:20) 14.3 (00:00) 22.5 5.56 (13:50) 3.33 (17:00) 0 0 0 0 0
28-09-2019 28.9 (17:10) 16.4 (00:00) 22.6 6.11 (19:00) 3.89 (19:00) 0 0 0 0 0
27-09-2019 30.7 (17:50) 15.4 (00:00) 23.1 5.28 (16:20) 3.06 (16:10) 0 0 0 0 0
26-09-2019 29.1 (18:00) 13.2 (00:00) 21.2 4.72 (15:10) 3.06 (15:20) 0 0 0 0 0
25-09-2019 26.4 (16:30) 17.9 (00:00) 22.1 11.67 (14:50) 6.11 (15:30) 0 0 0 0 0
24-09-2019 30.9 (17:00) 12.6 (00:00) 21.8 6.39 (14:40) 3.89 (14:40) 0 0 0 0 0
23-09-2019 27 (16:50) 11.9 (00:00) 19.4 6.39 (14:40) 3.33 (13:50) 0 0 0 0 0
22-09-2019 29.3 (15:30) 17.6 (00:00) 23.4 9.44 (17:00) 5.28 (17:50) 0 0 0 0 0
21-09-2019 29.3 (16:40) 18.2 (00:00) 23.8 8.89 (18:00) 5 (18:00) 3.4 0 3.4 0 0
20-09-2019 30.6 (15:50) 16.8 (00:00) 23.7 8.61 (18:30) 4.72 (22:50) 0 0 0 0 0
19-09-2019 31.4 (17:00) 17.5 (00:00) 24.4 8.33 (18:20) 5 (18:20) 0 0 0 0 0
18-09-2019 31.4 (16:40) 16.2 (00:00) 23.8 8.89 (19:10) 4.72 (19:10) 0 0 0 0 0

Gráficas

Temp. máximas Temp. mínimas Temp. medias Precipitaciones Rachas de viento máximas Velocidades máximas media en intervalos de 10 minutos

Datos horarios

Fecha y hora oficial Temperatura (ºC) Velocidad del viento (km/h) Dirección del viento Racha (km/h) Dirección de racha Precipitación (mm) Presión (hPa) Tendencia (hPa) Humedad (%)
2019-10-16 23:00:00 12.6 5 Norte 10 Nordeste 0 993.4 1.1 71
2019-10-16 22:00:00 13.4 5 Sudoeste 10 Sur 0 993 0.7 69
2019-10-16 21:00:00 15.2 4 Noroeste 9 Norte 0 992.8 0.2 62
2019-10-16 20:00:00 17.3 0 Calma 8 Sur 0 992.3 -0.6 52
2019-10-16 19:00:00 20.5 3 Sudeste 12 Sudeste 0 992.3 -1.2 43
2019-10-16 18:00:00 21.8 8 Sur 13 Sur 0 992.6 -1.6 37
2019-10-16 17:00:00 21.6 6 Sur 16 Sudoeste 0 992.9 -2.1 37
2019-10-16 16:00:00 21.7 7 Oeste 21 Sudoeste 0 993.5 -2.3 37
2019-10-16 15:00:00 20.8 10 Sudoeste 18 Oeste 0 994.2 -2.3 38
2019-10-16 14:00:00 19.5 9 Oeste 18 Oeste 0 995 -1.8 40
2019-10-16 13:00:00 18.3 8 Oeste 14 Sudoeste 0 995.8 -0.8 45
2019-10-16 12:00:00 16.7 5 Sudoeste 12 Sudoeste 0 996.5 0.2 52
2019-10-16 11:00:00 14.1 3 Norte 12 Nordeste 0 996.8 0.9 62
2019-10-16 10:00:00 11.2 5 Norte 10 Nordeste 0 996.6 0.8 78
2019-10-16 09:00:00 9 4 Nordeste 7 Nordeste 0 996.3 0.5 87
2019-10-16 08:00:00 8.6 5 Nordeste 8 Nordeste 0 995.9 -0.1 88
2019-10-16 07:00:00 8.7 5 Nordeste 7 Nordeste 0 995.8 -0.3 86
2019-10-16 06:00:00 9.1 4 Nordeste 6 Nordeste 0 995.8 -0.6 83
2019-10-16 05:00:00 8.6 2 Noroeste 9 Norte 0 996 -0.6 85
2019-10-16 04:00:00 8.6 5 Norte 9 Norte 0 996.1 -0.8 84
2019-10-16 03:00:00 9 6 Este 12 Este 0 996.4 -0.1 80
2019-10-16 02:00:00 9 4 Norte 5 Norte 0 996.6 0.3 80
2019-10-16 01:00:00 9.8 3 Sudeste 8 Oeste 0 996.9 1.1 75
2019-10-16 00:00:00 11.1 6 Oeste 9 Oeste 0 996.5 1.2 68
2019-10-15 23:00:00 10.9 4 Sur 8 Oeste 0 996.3 1.4 72
2019-10-15 22:00:00 12.1 3 Sudoeste 8 Sudoeste 0 995.8 1.5 66
2019-10-15 21:00:00 13.7 6 Sudoeste 13 Oeste 0 995.3 1.7 59
2019-10-15 20:00:00 15.7 10 Oeste 22 Oeste 0 994.9 1 50
2019-10-15 19:00:00 17.7 10 Oeste 29 Oeste 0 994.3 0.4 45
2019-10-15 18:00:00 19.2 19 Oeste 41 Noroeste 0 993.6 -0.5 40
2019-10-15 17:00:00 18.7 18 Oeste 38 Oeste 0 993.9 -0.5 42
2019-10-15 16:00:00 19.3 20 Oeste 40 Oeste 0 993.9 -1 40
2019-10-15 15:00:00 18.8 24 Oeste 43 Oeste 0 994.1 -0.8 42
2019-10-15 14:00:00 17.9 23 Oeste 46 Oeste 0 994.4 0.1 45
2019-10-15 13:00:00 16.7 27 Oeste 49 Oeste 0 994.9 1.5 48
2019-10-15 12:00:00 15.9 17 Oeste 39 Oeste 0 994.9 2.4 54
2019-10-15 11:00:00 14.2 20 Oeste 36 Oeste 0 994.3 2.8 60
2019-10-15 10:00:00 13 17 Oeste 31 Sudoeste 0 993.4 2 65
2019-10-15 09:00:00 11.7 16 Sudoeste 32 Sudoeste 0 992.5 1.4 69
2019-10-15 08:00:00 10.9 16 Oeste 35 Oeste 0 991.5 0.6 76
2019-10-15 07:00:00 11.6 20 Oeste 34 Oeste 0 991.4 1.2 75
2019-10-15 06:00:00 11.5 13 Sudoeste 21 Oeste 0 991.1 0.7 74
2019-10-15 05:00:00 12.1 11 Oeste 22 Sudoeste 0 990.9 0.4 72
2019-10-15 04:00:00 12.4 8 Oeste 19 Oeste 0 990.2 0 74
2019-10-15 03:00:00 13.8 8 Oeste 22 Oeste 0 990.4 1.4 71
2019-10-15 02:00:00 14.2 10 Sudoeste 20 Oeste 0 990.5 2.5 73
2019-10-15 01:00:00 14.6 13 Oeste 32 Noroeste 0 990.2 2.2 74
2019-10-15 00:00:00 15.6 17 Noroeste 45 Noroeste 0 989 1.5 71
2019-10-14 23:00:00 16.2 7 Norte 12 Nordeste 0 988 1.3 94
2019-10-14 22:00:00 16.3 8 Nordeste 12 Nordeste 0.2 988 2.2 93
2019-10-14 21:00:00 17.6 4 Este 25 Noroeste 2.8 987.5 1.1 88
2019-10-14 20:00:00 19.4 8 Nordeste 33 Nordeste 0 986.7 -0.6 82
2019-10-14 19:00:00 20.4 23 Este 38 Este 0 985.8 -3.3 78
2019-10-14 18:00:00 21.8 13 Nordeste 31 Este 0 986.4 -3.3 77
2019-10-14 17:00:00 21.1 12 Este 23 Este 0.6 987.3 -2.8 86
2019-10-14 16:00:00 20.3 9 Norte 14 Norte 0.8 989.1 -2 85
2019-10-14 15:00:00 22.4 6 Nordeste 17 Nordeste 0 989.7 -0.6 71
2019-10-14 14:00:00 22.7 8 Nordeste 15 Nordeste 0.2 990.1 -1 72
2019-10-14 13:00:00 22.3 8 Nordeste 23 Nordeste 0 991.1 0.5 71
2019-10-14 12:00:00 22.4 12 Nordeste 30 Nordeste 0 990.3 0 68
2019-10-14 11:00:00 21.5 8 Nordeste 24 Este 0 991.1 0.9 71
2019-10-14 10:00:00 19.8 14 Nordeste 29 Nordeste 0 990.6 0.6 75
2019-10-14 09:00:00 18 13 Nordeste 25 Nordeste 0 990.3 -0.8 81
2019-10-14 08:00:00 17.4 10 Nordeste 29 Nordeste 0 990.2 -0.9 84
2019-10-14 07:00:00 17.6 14 Nordeste 25 Nordeste 0 990 -1.7 83
2019-10-14 06:00:00 17.7 13 Nordeste 28 Este 0 991.1 -1.4 84
2019-10-14 05:00:00 17.6 15 Nordeste 25 Este 0 991.1 -1.6 85
2019-10-14 04:00:00 17.5 9 Nordeste 17 Este 0 991.7 -1.3 86
2019-10-14 03:00:00 17.8 7 Nordeste 17 Nordeste 0 992.5 -0.7 85
2019-10-14 02:00:00 18.1 8 Nordeste 20 Nordeste 0 992.7 -0.6 84
2019-10-14 01:00:00 18.5 12 Nordeste 24 Nordeste 0 993 0 83
2019-10-14 00:00:00 19.1 13 Nordeste 21 Este 0 993.2 0.5 80
2019-10-13 23:00:00 19.4 9 Nordeste 18 Este 0 993.3 1.2 79
2019-10-13 22:00:00 20.3 11 Nordeste 17 Este 0 993 1.7 75
2019-10-13 21:00:00 21.7 7 Nordeste 13 Este 0 992.7 1.5 68
2019-10-13 20:00:00 23.4 9 Sudeste 24 Este 0 992.1 0.8 60
2019-10-13 19:00:00 25.7 6 Sudeste 21 Sudoeste 0 991.3 -0.3 52
2019-10-13 18:00:00 28 9 Sur 21 Sur 0 991.2 -0.8 47
2019-10-13 17:00:00 28.9 11 Sur 20 Sudoeste 0 991.3 -1.6 43
2019-10-13 16:00:00 29 6 Sur 23 Sudeste 0 991.6 -2.3 43
2019-10-13 15:00:00 28.1 5 Nordeste 22 Este 0 992 -2.2 46
2019-10-13 14:00:00 27 11 Nordeste 19 Nordeste 0 992.9 -1.3 50
2019-10-13 13:00:00 25.8 11 Este 22 Este 0 993.9 -0.1 54
2019-10-13 12:00:00 24.9 12 Este 25 Nordeste 0 994.2 0.5 60
2019-10-13 11:00:00 22.9 13 Nordeste 24 Nordeste 0 994.2 0.8 67
2019-10-13 10:00:00 20.8 14 Nordeste 24 Este 0 994 0.7 75
2019-10-13 09:00:00 19.3 9 Nordeste 18 Nordeste 0 993.7 0.4 78
2019-10-13 08:00:00 18.9 8 Nordeste 22 Nordeste 0 993.4 -0.4 79
2019-10-13 07:00:00 18.9 13 Nordeste 24 Este 0 993.3 -0.8 79
2019-10-13 06:00:00 18.9 12 Nordeste 19 Nordeste 0 993.3 -1.3 80
2019-10-13 05:00:00 18.6 10 Nordeste 23 Nordeste 0 993.8 -0.9 80
2019-10-13 04:00:00 18.5 12 Nordeste 21 Este 0 994.1 -0.6 81
2019-10-13 03:00:00 18 9 Nordeste 18 Nordeste 0 994.6 -0.2 83
2019-10-13 02:00:00 18.5 12 Nordeste 23 Este 0 994.7 0.3 81
2019-10-13 01:00:00 18.6 7 Nordeste 19 Este 0 994.7 0.7 81
2019-10-13 00:00:00 18.7 8 Nordeste 17 Este 0 994.8 1 80
2019-10-12 23:00:00 19.4 9 Nordeste 15 Nordeste 0 994.4 0.8 78
2019-10-12 22:00:00 20.6 8 Nordeste 16 Nordeste 0 994 0.8 74
2019-10-12 21:00:00 21.6 6 Nordeste 18 Sudeste 0 993.8 0.8 65
2019-10-12 20:00:00 22.4 6 Sur 22 Sudeste 0 993.6 0.3 62
2019-10-12 19:00:00 24.2 12 Sur 29 Sur 0 993.2 -0.2 56
2019-10-12 18:00:00 26.3 16 Sur 32 Sur 0 993 -0.9 51
2019-10-12 17:00:00 26.8 16 Sur 31 Sur 0 993.3 -1.4 50
2019-10-12 16:00:00 27.2 13 Sur 32 Sur 0 993.4 -2 48
2019-10-12 15:00:00 28.3 18 Sur 28 Sur 0 993.9 -2 45
2019-10-12 14:00:00 27 8 Este 18 Este 0 994.7 -1.5 53
2019-10-12 13:00:00 26.7 9 Este 19 Este 0 995.4 -0.7 52
2019-10-12 12:00:00 25 10 Este 18 Este 0 995.9 0.4 59
2019-10-12 11:00:00 23.4 11 Este 24 Nordeste 0 996.2 1 67
2019-10-12 10:00:00 20.6 10 Nordeste 21 Nordeste 0 996.1 0.9 78
2019-10-12 09:00:00 18 10 Nordeste 17 Nordeste 0 995.5 0.5 87
2019-10-12 08:00:00 17.3 8 Nordeste 14 Nordeste 0 995.2 0.1 89
2019-10-12 07:00:00 17.3 6 Norte 12 Norte 0 995.2 -0.1 90
2019-10-12 06:00:00 16.9 6 Nordeste 14 Nordeste 0 995 -1 90
2019-10-12 05:00:00 16.9 9 Nordeste 13 Nordeste 0 995.1 -1 91
2019-10-12 04:00:00 17.1 8 Nordeste 14 Nordeste 0 995.3 -1 90
2019-10-12 03:00:00 17.4 8 Nordeste 14 Nordeste 0 996 -0.1 89
2019-10-12 02:00:00 17.8 9 Nordeste 13 Nordeste 0 996.1 0.2 87
2019-10-12 01:00:00 18 7 Nordeste 13 Nordeste 0 996.3 0.7 86
2019-10-12 00:00:00 18.3 8 Nordeste 14 Nordeste 0 996.1 1.4 84
2019-10-11 23:00:00 19 6 Nordeste 12 Nordeste 0 995.9 1.5 82
2019-10-11 22:00:00 20.1 6 Nordeste 9 Norte 0 995.6 1.4 77
2019-10-11 21:00:00 21.6 4 Este 19 Sur 0 994.7 0.5 71
2019-10-11 20:00:00 22.8 5 Sur 18 Sur 0 994.4 -0.1 67
2019-10-11 19:00:00 25.1 10 Sur 19 Sur 0 994.2 -0.9 59
2019-10-11 18:00:00 27.3 4 Nordeste 12 Nordeste 0 994.2 -1.7 51
2019-10-11 17:00:00 27.1 6 Nordeste 14 Este 0 994.5 -2.7 51
2019-10-11 16:00:00 26.6 6 Nordeste 14 Nordeste 0 995.1 -3.1 51
2019-10-11 15:00:00 25.4 7 Este 16 Este 0 995.9 -2.8 54
2019-10-11 14:00:00 24.2 7 Nordeste 15 Este 0 997.2 -1.9 57
2019-10-11 13:00:00 22.6 5 Nordeste 14 Este 0 998.2 -0.7 60
2019-10-11 12:00:00 18.6 6 Nordeste 12 Norte 0 998.7 0.2 61
2019-10-11 11:00:00 15.4 8 Nordeste 14 Nordeste 0 999.1 1 69
2019-10-11 10:00:00 13.8 8 Nordeste 17 Nordeste 0 998.9 1 73
2019-10-11 09:00:00 12.6 6 Nordeste 12 Norte 0 998.5 0.7 77
2019-10-11 08:00:00 11.7 5 Nordeste 14 Nordeste 0 998.1 0.1 78
2019-10-11 07:00:00 11.8 7 Nordeste 15 Nordeste 0 997.9 -0.2 79
2019-10-11 06:00:00 12.8 8 Nordeste 14 Nordeste 0 997.8 -0.8 78
2019-10-11 05:00:00 12.5 6 Nordeste 14 Nordeste 0 998 -0.7 79
2019-10-11 04:00:00 12.2 8 Nordeste 12 Nordeste 0 998.1 -0.7 81
2019-10-11 03:00:00 12.5 7 Nordeste 12 Nordeste 0 998.6 -0.2 81
2019-10-11 02:00:00 13.4 9 Nordeste 14 Nordeste 0 998.7 0 80
2019-10-11 01:00:00 13.7 8 Nordeste 13 Norte 0 998.8 0.6 76
2019-10-11 00:00:00 14.2 6 Nordeste 12 Norte 0 998.8 0.9 71
2019-10-10 23:00:00 15 7 Nordeste 11 Nordeste 0 998.7 1.3 69
2019-10-10 22:00:00 16 5 Nordeste 7 Nordeste 0 998.2 1.3 69
2019-10-10 21:00:00 17.1 2 Norte 7 Sur 0 997.9 0.9 64
2019-10-10 20:00:00 19.2 0 Calma 5 Sur 0 997.4 0 55
2019-10-10 19:00:00 22.4 4 Noroeste 9 Oeste 0 996.9 -0.9 44
2019-10-10 18:00:00 23.4 5 Oeste 12 Sudoeste 0 997 -1.5 40
2019-10-10 17:00:00 23.2 7 Sudoeste 14 Sudoeste 0 997.4 -2 42
2019-10-10 16:00:00 22.4 7 Sudoeste 14 Oeste 0 997.8 -2.2 43
2019-10-10 15:00:00 20.7 6 Oeste 11 Oeste 0 998.5 -1.9 46
2019-10-10 14:00:00 19.7 6 Sudoeste 15 Sudoeste 0 999.4 -1 49
2019-10-10 13:00:00 18.9 4 Sudoeste 11 Oeste 0 1000 -0.2 51
2019-10-10 12:00:00 16.3 2 Oeste 9 Nordeste 0 1000.4 1.2 60
2019-10-10 11:00:00 14.3 5 Este 11 Nordeste 0 1000.4 2 69
2019-10-10 10:00:00 12.5 6 Nordeste 12 Nordeste 0 1000.2 1.9 75
2019-10-10 09:00:00 12.6 4 Nordeste 8 Nordeste 0 999.2 1.1 75
2019-10-10 08:00:00 12.4 4 Nordeste 9 Norte 0 998.4 0.8 76
2019-10-10 07:00:00 12.4 3 Nordeste 8 Nordeste 0 998.3 0.6 76
2019-10-10 06:00:00 13.3 5 Oeste 9 Oeste 0 998.1 0.1 70
2019-10-10 05:00:00 13.6 5 Oeste 9 Oeste 0 997.6 -0.2 69
2019-10-10 04:00:00 13.6 5 Sudoeste 8 Oeste 0 997.7 0.1 70
2019-10-10 03:00:00 13.3 4 Sudoeste 7 Oeste 0 998 1 71
2019-10-10 02:00:00 13.9 3 Sudoeste 11 Sudoeste 0 997.8 1.5 70
2019-10-10 01:00:00 15 6 Sudoeste 18 Oeste 0 997.6 2.1 66
2019-10-10 00:00:00 15.8 6 Sudoeste 8 Sur 0 997 2.2 66
2019-10-09 23:00:00 16.9 5 Oeste 14 Oeste 0 996.3 2.6 61
2019-10-09 22:00:00 18.1 8 Sudoeste 19 Oeste 0 995.5 2.5 59
2019-10-09 21:00:00 21.1 11 Oeste 23 Oeste 0 994.8 1.9 48
2019-10-09 20:00:00 22.6 8 Oeste 12 Oeste 0 993.7 0.8 52
2019-10-09 19:00:00 25.1 4 Oeste 12 Oeste 0 993 -0.4 54
2019-10-09 18:00:00 26 10 Oeste 17 Oeste 0 992.9 -0.8 51
2019-10-09 17:00:00 25.9 10 Oeste 24 Oeste 0 992.9 -1.1 52
2019-10-09 16:00:00 24.6 12 Oeste 18 Oeste 0 993.4 -1.4 56
2019-10-09 15:00:00 22.7 8 Oeste 20 Oeste 0 993.7 -1.5 65
2019-10-09 14:00:00 21.3 9 Sudoeste 17 Sudoeste 0 994 -0.8 70
2019-10-09 13:00:00 20.9 9 Sudoeste 14 Sudoeste 0 994.8 0.1 70
2019-10-09 12:00:00 18.5 8 Sudoeste 12 Sudoeste 0 995.2 0.9 77
2019-10-09 11:00:00 17.7 6 Sur 14 Sur 0 994.8 1.5 78
2019-10-09 10:00:00 17 6 Sur 12 Sur 0 994.7 1.3 81
2019-10-09 09:00:00 15.8 2 Noroeste 10 Este 0 994.3 0.9 81
2019-10-09 08:00:00 15.3 5 Este 10 Nordeste 0 993.3 0.1 83
2019-10-09 07:00:00 16 6 Nordeste 16 Norte 0 993.4 0.3 81
2019-10-09 06:00:00 16.2 8 Norte 13 Norte 0 993.4 0 80
2019-10-09 05:00:00 15.8 2 Norte 13 Norte 0 993.2 -0.4 83
2019-10-09 04:00:00 15.9 8 Nordeste 12 Nordeste 0 993.1 -0.6 86
2019-10-09 03:00:00 16.2 6 Nordeste 11 Nordeste 0 993.4 -0.2 86
2019-10-09 02:00:00 17 8 Nordeste 12 Nordeste 0 993.6 0.3 83
2019-10-09 01:00:00 17.7 7 Nordeste 12 Nordeste 0 993.7 0.9 80
2019-10-09 00:00:00 18.4 7 Nordeste 13 Norte 0 993.6 1 79
2019-10-08 23:00:00 19.1 7 Norte 12 Norte 0 993.3 0.8 74
2019-10-08 22:00:00 21.1 6 Nordeste 12 Sur 0 992.8 0.6 66
2019-10-08 21:00:00 22.3 6 Sur 13 Sur 0 992.6 0.3 62
2019-10-08 20:00:00 24.2 6 Sur 10 Sur 0 992.5 -0.1 52
2019-10-08 19:00:00 27.2 3 Sudoeste 6 Noroeste 0 992.2 -1.1 39
2019-10-08 18:00:00 28.5 4 Oeste 11 Oeste 0 992.3 -1.5 35
2019-10-08 17:00:00 28.1 4 Sudeste 11 Oeste 0 992.6 -2.3 36
2019-10-08 16:00:00 27.5 5 Este 12 Oeste 0 993.3 -2.4 36
2019-10-08 15:00:00 26.5 5 Sudoeste 12 Oeste 0 993.8 -2.5 37
2019-10-08 14:00:00 24.8 4 Nordeste 13 Noroeste 0 994.9 -1.7 43
2019-10-08 13:00:00 23.7 6 Este 10 Este 0 995.7 -0.9 46
2019-10-08 12:00:00 22.2 5 Este 12 Este 0 996.3 0.3 49
2019-10-08 11:00:00 19.4 6 Nordeste 12 Norte 0 996.6 0.8 56
2019-10-08 10:00:00 16.2 6 Nordeste 13 Nordeste 0 996.6 1.2 64
2019-10-08 09:00:00 13.6 8 Norte 14 Nordeste 0 996 0.8 71
2019-10-08 08:00:00 12.5 8 Nordeste 12 Nordeste 0 995.8 0.6 72
2019-10-08 07:00:00 12.8 10 Nordeste 14 Nordeste 0 995.4 0.2 73
2019-10-08 06:00:00 12.7 8 Nordeste 13 Nordeste 0 995.2 -0.2 73
2019-10-08 05:00:00 13.1 8 Nordeste 14 Nordeste 0 995.2 0.2 71
2019-10-08 04:00:00 13.7 8 Nordeste 14 Nordeste 0 995.2 0.4 67
2019-10-08 03:00:00 14.2 7 Nordeste 13 Nordeste 0 995.4 0.8 65
2019-10-08 02:00:00 14.6 8 Nordeste 14 Nordeste 0 995 0.9 63
2019-10-08 01:00:00 15.6 8 Nordeste 12 Nordeste 0 994.8 1.2 60
2019-10-08 00:00:00 16.8 8 Nordeste 12 Norte 0 994.6 1.8 57
2019-10-07 23:00:00 17.4 9 Nordeste 14 Nordeste 0 994.1 1.7 57
2019-10-07 22:00:00 18.3 8 Norte 12 Norte 0 993.6 1.6 55
2019-10-07 21:00:00 19.6 5 Norte 8 Norte 0 992.8 0.9 53
2019-10-07 20:00:00 22 3 Sur 8 Sur 0 992.4 0.5 43
2019-10-07 19:00:00 24.5 5 Sur 12 Sur 0 992 -0.2 36
2019-10-07 18:00:00 25.7 9 Sudoeste 24 Oeste 0 991.9 -0.6 32
2019-10-07 17:00:00 25.7 12 Sudoeste 27 Oeste 0 991.9 -1.4 32
2019-10-07 16:00:00 24.6 14 Oeste 23 Oeste 0 992.2 -2.2 30
2019-10-07 15:00:00 23.5 14 Oeste 29 Oeste 0 992.5 -2.2 35
2019-10-07 14:00:00 22.3 17 Oeste 29 Sudoeste 0 993.3 -0.9 40
2019-10-07 13:00:00 20.7 12 Oeste 24 Oeste 0 994.4 0.2 44
2019-10-07 12:00:00 18.3 10 Sudoeste 19 Sudoeste 0 994.7 1.2 53
2019-10-07 11:00:00 16.3 11 Sudoeste 21 Sudoeste 0 994.2 1.5 60
2019-10-07 10:00:00 15.2 12 Oeste 22 Oeste 0 994.2 2 65
2019-10-07 09:00:00 12.8 8 Sudoeste 16 Sudoeste 0 993.5 1.3 70
2019-10-07 08:00:00 12.8 10 Sudoeste 17 Oeste 0 992.7 0.1 68
2019-10-07 07:00:00 13.3 10 Sudoeste 21 Oeste 0 992.2 -0.1 65
2019-10-07 06:00:00 13.9 10 Sudoeste 23 Oeste 0 992.2 -0.4 62
2019-10-07 05:00:00 14.8 13 Sudoeste 30 Sudoeste 0 992.6 0 58
2019-10-07 04:00:00 15.5 9 Sudoeste 33 Oeste 0 992.3 0.1 57
2019-10-07 03:00:00 16.4 21 Oeste 36 Oeste 0 992.6 -0.3 57
2019-10-07 02:00:00 17.4 14 Oeste 34 Oeste 0 992.6 0 53
2019-10-07 01:00:00 17.6 15 Oeste 33 Oeste 0 992.2 -0.1 53
2019-10-07 00:00:00 17.9 14 Oeste 27 Oeste 0 992.9 0.7 52
2019-10-06 23:00:00 18.8 13 Oeste 28 Oeste 0 992.6 0.3 53
2019-10-06 22:00:00 19.6 14 Oeste 25 Oeste 0 992.3 0 53
2019-10-06 21:00:00 20.6 6 Sudoeste 25 Oeste 0 992.2 0.3 51
2019-10-06 20:00:00 21.9 8 Sudoeste 27 Oeste 0 992.3 -0.2 49
2019-10-06 19:00:00 23.9 17 Oeste 32 Oeste 0 992.3 -1.2 45
2019-10-06 18:00:00 24.7 6 Sur 23 Sudoeste 0 991.9 -2.3 42
2019-10-06 17:00:00 24.7 12 Sudoeste 23 Sudoeste 0 992.5 -2.6 40
2019-10-06 16:00:00 24.1 10 Oeste 22 Oeste 0 993.5 -2.2 42
2019-10-06 15:00:00 21.8 8 Oeste 23 Noroeste 0 994.2 -2.1 49
2019-10-06 14:00:00 21.7 10 Oeste 20 Oeste 0 995.1 -1.1 49
2019-10-06 13:00:00 20.1 11 Oeste 19 Sur 0 995.7 0 57
2019-10-06 12:00:00 17.4 9 Oeste 18 Sudoeste 0 996.3 1.1 70
2019-10-06 11:00:00 16.4 12 Oeste 20 Oeste 0 996.2 2.1 74
2019-10-06 10:00:00 14.2 6 Sudoeste 10 Sudoeste 0 995.7 1.9 87
2019-10-06 09:00:00 12.6 4 Oeste 7 Oeste 0 995.2 1.8 95
2019-10-06 08:00:00 12 4 Sudoeste 6 Sudoeste 0 994.1 0.8 95
2019-10-06 07:00:00 12.2 2 Sur 12 Oeste 0 993.8 0.4 91
2019-10-06 06:00:00 12.9 4 Nordeste 9 Nordeste 0 993.4 -0.2 88
2019-10-06 05:00:00 13.4 4 Nordeste 10 Nordeste 0 993.3 0.2 86
2019-10-06 04:00:00 14.4 6 Nordeste 11 Norte 0 993.4 0.1 87
2019-10-06 03:00:00 15.2 6 Nordeste 11 Nordeste 0 993.6 0.4 87
2019-10-06 02:00:00 15.4 7 Norte 10 Nordeste 0 993.1 0 86
2019-10-06 01:00:00 15.9 7 Nordeste 11 Nordeste 0 993.3 0.7 84
2019-10-06 00:00:00 16.3 9 Norte 13 Norte 0 993.2 1 79
2019-10-05 23:00:00 16.9 6 Nordeste 8 Nordeste 0 993.1 1.7 69
2019-10-05 22:00:00 18.4 5 Norte 6 Noroeste 0 992.6 1.4 63
2019-10-05 21:00:00 19.7 4 Sudeste 13 Sur 0 992.2 1.3 58
2019-10-05 20:00:00 22.4 5 Norte 8 Norte 0 991.4 0.4 48
2019-10-05 19:00:00 25.1 3 Norte 9 Oeste 0 991.2 -0.2 40
2019-10-05 18:00:00 26.5 5 Oeste 10 Oeste 0 990.9 -1.1 36
2019-10-05 17:00:00 26.2 6 Oeste 15 Noroeste 0 991 -1.7 38
2019-10-05 16:00:00 25.3 8 Oeste 16 Oeste 0 991.4 -1.9 41
2019-10-05 15:00:00 24.1 9 Oeste 18 Oeste 0 992 -1.6 44
2019-10-05 14:00:00 23.3 5 Sur 17 Sudoeste 0 992.7 -0.9 48
2019-10-05 13:00:00 21.7 9 Oeste 23 Sur 0 993.3 -0.1 52
2019-10-05 12:00:00 20.4 9 Sudoeste 19 Oeste 0 993.6 0.9 56
2019-10-05 11:00:00 18.7 8 Oeste 16 Oeste 0 993.6 1.4 64
2019-10-05 10:00:00 16.9 5 Sudoeste 11 Oeste 0 993.4 1.8 73
2019-10-05 09:00:00 14.1 8 Oeste 12 Oeste 0 992.7 1.2 85
2019-10-05 08:00:00 11.7 4 Oeste 6 Sur 0 992.2 0.6 90
2019-10-05 07:00:00 12.2 4 Sur 9 Sudoeste 0 991.6 -0.1 87
2019-10-05 06:00:00 13.4 5 Sudoeste 9 Sudoeste 0 991.5 -0.5 82
2019-10-05 05:00:00 14.8 6 Oeste 12 Oeste 0 991.6 -0.1 76
2019-10-05 04:00:00 15.4 8 Sudoeste 10 Sudoeste 0 991.7 0.3 76
2019-10-05 03:00:00 16.1 3 Nordeste 12 Oeste 0 992 0.9 75
2019-10-05 02:00:00 17.4 6 Noroeste 17 Oeste 0 991.7 0.7 70
2019-10-05 01:00:00 17.2 5 Nordeste 10 Nordeste 0 991.4 0.8 72
2019-10-05 00:00:00 18.9 9 Oeste 17 Oeste 0 991.1 0.8 65
2019-10-04 23:00:00 17.6 3 Nordeste 9 Nordeste 0 991 1.1 69
2019-10-04 22:00:00 19 5 Norte 8 Norte 0 990.6 1.2 65
2019-10-04 21:00:00 20.6 2 Norte 6 Nordeste 0 990.3 0.5 60
2019-10-04 20:00:00 22.9 6 Nordeste 9 Nordeste 0 989.9 -0.4 51
2019-10-04 19:00:00 26.2 3 Nordeste 5 Sur 0 989.4 -2 40
2019-10-04 18:00:00 27.4 2 Noroeste 7 Sudoeste 0 989.8 -2.5 37
2019-10-04 17:00:00 26.5 4 Oeste 12 Oeste 0 990.3 -3.1 38
2019-10-04 16:00:00 25.7 5 Oeste 13 Oeste 0 991.4 -2.6 39
2019-10-04 15:00:00 23.8 6 Oeste 13 Sudoeste 0 992.3 -2.1 38
2019-10-04 14:00:00 22.5 3 Oeste 10 Sudoeste 0 993.4 -1.2 38
2019-10-04 13:00:00 20.8 5 Noroeste 10 Norte 0 994 -0.7 41
2019-10-04 12:00:00 18.5 4 Este 10 Este 0 994.4 0 49
2019-10-04 11:00:00 15.6 4 Nordeste 9 Nordeste 0 994.6 0.7 57
2019-10-04 10:00:00 12.5 7 Nordeste 15 Nordeste 0 994.7 1.3 70
2019-10-04 09:00:00 10.3 4 Nordeste 10 Nordeste 0 994.4 1 81
2019-10-04 08:00:00 8.7 4 Nordeste 7 Nordeste 0 993.9 0.8 87
2019-10-04 07:00:00 9.2 4 Nordeste 8 Nordeste 0 993.4 0.5 86
2019-10-04 06:00:00 9.6 6 Nordeste 10 Norte 0 993.4 0.4 86
2019-10-04 05:00:00 10 7 Norte 11 Norte 0 993.1 0 84
2019-10-04 04:00:00 10.7 6 Nordeste 10 Norte 0 992.9 -0.1 81
2019-10-04 03:00:00 11.4 4 Nordeste 9 Nordeste 0 993 0 78
2019-10-04 02:00:00 11.7 4 Norte 7 Nordeste 0 993.1 0.3 77
2019-10-04 01:00:00 13.1 5 Norte 8 Norte 0 993 0.8 71
2019-10-04 00:00:00 14.4 5 Nordeste 12 Norte 0 993 1.2 67
2019-10-03 23:00:00 15.8 8 Norte 10 Norte 0 992.8 1.6 62
2019-10-03 22:00:00 16.6 3 Noroeste 9 Noroeste 0 992.2 1.1 58
2019-10-03 21:00:00 18.5 3 Norte 7 Sur 0 991.8 0.5 53
2019-10-03 20:00:00 20.9 4 Sudeste 6 Sudeste 0 991.2 -0.5 43
2019-10-03 19:00:00 24.3 3 Sudoeste 16 Oeste 0 991.1 -1 33
2019-10-03 18:00:00 25.1 10 Oeste 18 Sudoeste 0 991.3 -1.3 30
2019-10-03 17:00:00 24.8 10 Oeste 21 Oeste 0 991.7 -1.6 35
2019-10-03 16:00:00 23.9 11 Oeste 24 Sudoeste 0 992.1 -2.2 38
2019-10-03 15:00:00 22.7 13 Oeste 25 Oeste 0 992.6 -2.2 42
2019-10-03 14:00:00 21 14 Sudoeste 25 Oeste 0 993.3 -1.7 47
2019-10-03 13:00:00 19.4 14 Oeste 26 Oeste 0 994.3 -0.4 55
2019-10-03 12:00:00 17.4 14 Oeste 22 Sudoeste 0 994.8 0.3 65
2019-10-03 11:00:00 15.5 10 Sudoeste 20 Sudoeste 0 995 0.7 72
2019-10-03 10:00:00 12.5 3 Sudoeste 9 Sudoeste 0 994.7 0.8 84
2019-10-03 09:00:00 11 4 Nordeste 7 Nordeste 0 994.5 0.9 87
2019-10-03 08:00:00 10.4 0 Calma 3 Norte 0 994.3 0.7 88
2019-10-03 07:00:00 11.1 3 Oeste 7 Oeste 0 993.9 0.6 86
2019-10-03 06:00:00 11 3 Oeste 9 Sudoeste 0 993.6 -0.3 84
2019-10-03 05:00:00 11.5 6 Sudoeste 12 Sudoeste 0 993.6 -0.1 83
2019-10-03 04:00:00 12.3 6 Sudoeste 12 Sudoeste 0 993.3 -0.4 81
2019-10-03 03:00:00 13.3 5 Sudoeste 15 Sudoeste 0 993.9 0.5 77
2019-10-03 02:00:00 14 7 Sudoeste 15 Sudoeste 0 993.7 0.6 75
2019-10-03 01:00:00 15.1 7 Sudoeste 21 Sudoeste 0 993.7 1.7 70
2019-10-03 00:00:00 16.3 13 Sudoeste 25 Sudoeste 0 993.4 2.1 67
2019-10-02 23:00:00 17.3 13 Sudoeste 27 Sudoeste 0 993.1 3.1 62
2019-10-02 22:00:00 18.4 18 Sudoeste 36 Oeste 0 992 2.5 57
2019-10-02 21:00:00 19.4 19 Sudoeste 40 Noroeste 0 991.3 2.3 55
2019-10-02 20:00:00 21.5 26 Oeste 44 Oeste 0 990 1 45
2019-10-02 19:00:00 23.1 26 Oeste 48 Noroeste 0 989.5 0.6 44
2019-10-02 18:00:00 25.3 26 Oeste 43 Oeste 0 989 -0.2 38
2019-10-02 17:00:00 26.6 26 Oeste 46 Oeste 0 989 -0.7 36
2019-10-02 16:00:00 27 17 Oeste 41 Oeste 0 988.9 -1.3 33
2019-10-02 15:00:00 26.3 21 Oeste 44 Oeste 0 989.2 -1.2 36
2019-10-02 14:00:00 25.1 21 Oeste 39 Oeste 0 989.7 -1 39
2019-10-02 13:00:00 23.8 22 Oeste 35 Noroeste 0 990.2 -0.1 43
2019-10-02 12:00:00 22.4 22 Noroeste 39 Noroeste 0 990.4 0.8 47
2019-10-02 11:00:00 20.5 18 Oeste 36 Oeste 0 990.7 2 52
2019-10-02 10:00:00 18.7 10 Oeste 27 Sudoeste 0 990.3 1.8 58
2019-10-02 09:00:00 16.7 12 Sudoeste 22 Sudoeste 0 989.6 1.4 63
2019-10-02 08:00:00 16 15 Oeste 35 Oeste 0 988.7 0.5 63
2019-10-02 07:00:00 16.3 15 Oeste 28 Oeste 0 988.5 0.4 62
2019-10-02 06:00:00 15.5 9 Sudoeste 21 Sudoeste 0 988.2 -0.2 72
2019-10-02 05:00:00 17 12 Sudoeste 27 Sudoeste 0 988.2 0.2 66
2019-10-02 04:00:00 16.8 10 Sudoeste 22 Oeste 0 988.1 0.4 66
2019-10-02 03:00:00 18.3 13 Sudoeste 31 Noroeste 0 988.4 1 61
2019-10-02 02:00:00 19.7 19 Oeste 35 Noroeste 0 988 1.2 52
2019-10-02 01:00:00 20.1 19 Oeste 35 Oeste 0 987.7 1.3 53
2019-10-02 00:00:00 21.2 16 Oeste 27 Oeste 0 987.4 1.9 52
2019-10-01 23:00:00 23 12 Noroeste 21 Oeste 0 986.8 1.7 44
2019-10-01 22:00:00 24.3 15 Noroeste 30 Noroeste 0 986.4 1.4 42
2019-10-01 21:00:00 25.8 18 Noroeste 34 Oeste 0 985.5 0.6 40
2019-10-01 20:00:00 26.7 15 Oeste 26 Noroeste 0 985.1 -0.1 38
2019-10-01 19:00:00 28.6 10 Oeste 21 Oeste 0 985 -0.9 38
2019-10-01 18:00:00 29.3 10 Sudoeste 18 Sudoeste 0 984.9 -1.8 41
2019-10-01 17:00:00 29.7 9 Sudoeste 21 Oeste 0 985.2 -2.2 42
2019-10-01 16:00:00 29 12 Oeste 20 Sudoeste 0 985.9 -2.4 37
2019-10-01 15:00:00 27.5 11 Oeste 19 Oeste 0 986.7 -2.2 50
2019-10-01 14:00:00 26.1 8 Sur 15 Sudoeste 0 987.4 -2 57
2019-10-01 13:00:00 24.9 6 Sudoeste 13 Sudoeste 0 988.3 -1.1 62
2019-10-01 12:00:00 23.4 4 Sur 9 Este 0 988.9 0.2 64
2019-10-01 11:00:00 21 5 Nordeste 9 Este 0 989.4 0.5 69
2019-10-01 10:00:00 17.8 6 Nordeste 11 Nordeste 0 989.4 0.4 80
2019-10-01 09:00:00 14.6 6 Nordeste 11 Nordeste 0 988.7 -0.4 88
2019-10-01 08:00:00 13.9 4 Nordeste 9 Norte 0 988.9 -0.6 93
2019-10-01 07:00:00 14.3 7 Nordeste 11 Norte 0 989 -0.9 91
2019-10-01 06:00:00 15.2 5 Nordeste 8 Nordeste 0 989.1 -1.6 91
2019-10-01 05:00:00 15.6 5 Nordeste 11 Nordeste 0 989.5 -1.4 90
2019-10-01 04:00:00 15.9 7 Norte 11 Nordeste 0 989.9 -1.3 91
2019-10-01 03:00:00 16.5 5 Nordeste 8 Nordeste 0 990.7 -0.4 89
2019-10-01 02:00:00 17.5 4 Este 9 Norte 0 990.9 -0.2 90
2019-10-01 01:00:00 18.4 7 Norte 10 Norte 0 991.2 0.2 88
2019-10-01 00:00:00 19.2 8 Nordeste 10 Nordeste 0 991.1 0.5 84
2019-09-30 23:00:00 20 5 Nordeste 7 Nordeste 0 991.1 0.6 80
2019-09-30 22:00:00 21.4 0 Calma 7 Sudoeste 0 991 0.6 75
2019-09-30 21:00:00 23 4 Sudoeste 14 Sudoeste 0 990.6 0.2 69
2019-09-30 20:00:00 24.9 10 Sudoeste 23 Sudoeste 0 990.5 -0.6 62
2019-09-30 19:00:00 27.5 16 Sudoeste 25 Sudoeste 0 990.4 -1.5 54
2019-09-30 18:00:00 30.9 4 Oeste 12 Sudoeste 0 990.4 -2.2 30
2019-09-30 17:00:00 30.8 6 Oeste 15 Oeste 0 991.1 -2.6 29
2019-09-30 16:00:00 29.9 8 Oeste 18 Sudoeste 0 991.9 -2.6 31
2019-09-30 15:00:00 28.6 7 Sudoeste 17 Sudoeste 0 992.6 -2.4 35
2019-09-30 14:00:00 26.8 8 Sudoeste 13 Sudoeste 0 993.7 -1.3 39
2019-09-30 13:00:00 24.8 6 Sudoeste 12 Sudoeste 0 994.5 -0.4 43
2019-09-30 12:00:00 22.7 6 Sur 12 Sudoeste 0 995 0.7 49
2019-09-30 11:00:00 20.7 5 Sudoeste 11 Sudoeste 0 995 1.2 56
2019-09-30 10:00:00 18.3 3 Sur 5 Este 0 994.9 1.5 67
2019-09-30 09:00:00 14.9 3 Norte 4 Norte 0 994.3 1.2 77
2019-09-30 08:00:00 12.8 0 Calma 5 Norte 0 993.8 0.8 84
2019-09-30 07:00:00 13.2 0 Calma 6 Nordeste 0 993.4 0.5 81
2019-09-30 06:00:00 14.6 4 Nordeste 8 Norte 0 993.1 0.1 77
2019-09-30 05:00:00 15.2 6 Nordeste 12 Nordeste 0 993 0.1 73
2019-09-30 04:00:00 15.4 8 Nordeste 10 Nordeste 0 992.9 0.3 75
2019-09-30 03:00:00 15.9 5 Norte 9 Nordeste 0 993 0.5 75
2019-09-30 02:00:00 16.6 4 Nordeste 10 Nordeste 0 992.9 0.8 71
2019-09-30 01:00:00 17.5 7 Nordeste 12 Nordeste 0 992.6 0.8 70
2019-09-30 00:00:00 18.3 7 Nordeste 9 Nordeste 0 992.5 1.4 70
2019-09-29 23:00:00 19.3 3 Noroeste 4 Noroeste 0 992.1 1.3 67
2019-09-29 22:00:00 20.5 2 Este 6 Nordeste 0 991.8 0.9 64
2019-09-29 21:00:00 23 3 Norte 5 Sudoeste 0 991.1 0.1 54
2019-09-29 20:00:00 26.2 3 Sudoeste 6 Sudoeste 0 990.8 -0.7 44
2019-09-29 19:00:00 29.6 4 Sur 13 Oeste 0 990.9 -1 35
2019-09-29 18:00:00 30.4 7 Sudoeste 17 Oeste 0 991 -1.7 33
2019-09-29 17:00:00 30.5 12 Oeste 20 Sudoeste 0 991.5 -2.1 33
2019-09-29 16:00:00 29.5 9 Sudoeste 19 Sudoeste 0 991.9 -2.5 37
2019-09-29 15:00:00 28 9 Sudoeste 18 Sudoeste 0 992.7 -2 49
2019-09-29 14:00:00 26.3 8 Oeste 20 Sudoeste 0 993.6 -1.3 61
2019-09-29 13:00:00 24.5 8 Sudoeste 15 Sudoeste 0 994.4 -0.4 65
2019-09-29 12:00:00 23.3 6 Sudoeste 13 Sudoeste 0 994.7 0.1 66
2019-09-29 11:00:00 21.1 3 Este 9 Norte 0 994.9 0.6 70
2019-09-29 10:00:00 18.2 3 Este 11 Nordeste 0 994.8 0.7 80
2019-09-29 09:00:00 15.3 2 Nordeste 10 Norte 0 994.6 0.3 93
2019-09-29 08:00:00 14.4 6 Nordeste 10 Nordeste 0 994.3 -0.1 93
2019-09-29 07:00:00 14.7 5 Nordeste 10 Nordeste 0 994.1 -0.5 92
2019-09-29 06:00:00 15.1 6 Nordeste 9 Nordeste 0 994.3 -1 91
2019-09-29 05:00:00 16 5 Nordeste 10 Nordeste 0 994.4 -0.8 90
2019-09-29 04:00:00 16.6 6 Nordeste 12 Nordeste 0 994.6 -0.8 89
2019-09-29 03:00:00 17 8 Nordeste 11 Nordeste 0 995.3 -0.3 89
2019-09-29 02:00:00 17.6 6 Nordeste 11 Nordeste 0 995.2 -0.3 87
2019-09-29 01:00:00 18.1 6 Nordeste 11 Nordeste 0 995.4 0 86
2019-09-29 00:00:00 18.9 7 Nordeste 12 Nordeste 0 995.6 0.4 82
2019-09-28 23:00:00 20.3 4 Norte 5 Norte 0 995.5 0.8 78
2019-09-28 22:00:00 21.3 5 Sudoeste 12 Sur 0 995.4 0.6 74
2019-09-28 21:00:00 22.5 6 Sur 17 Sur 0 995.2 0.5 69
2019-09-28 20:00:00 24.1 9 Sur 20 Sur 0 994.7 -0.5 63
2019-09-28 19:00:00 26.6 14 Sudoeste 22 Sudoeste 0 994.8 -1 54
2019-09-28 18:00:00 28.5 8 Sudoeste 17 Sudoeste 0 994.7 -2 46
2019-09-28 17:00:00 28.8 4 Sudoeste 15 Sur 0 995.2 -2.6 45
2019-09-28 16:00:00 27.8 5 Sudeste 14 Sudoeste 0 995.8 -2.6 46
2019-09-28 15:00:00 26.5 5 Noroeste 16 Sur 0 996.7 -1.9 48
2019-09-28 14:00:00 25.3 7 Oeste 15 Sudoeste 0 997.8 -1 50
2019-09-28 13:00:00 24.6 6 Sur 16 Sudoeste 0 998.4 0.2 50
2019-09-28 12:00:00 22.6 9 Sudoeste 16 Sudoeste 0 998.6 0.9 56
2019-09-28 11:00:00 20.5 6 Sudoeste 13 Sur 0 998.8 2 67
2019-09-28 10:00:00 18.6 7 Sudoeste 12 Sudoeste 0 998.2 1.8 76
2019-09-28 09:00:00 16.6 3 Sudoeste 6 Sur 0 997.7 1.6 90
2019-09-28 08:00:00 16.9 3 Sur 6 Oeste 0 996.8 1.1 89
2019-09-28 07:00:00 16.9 6 Sudoeste 12 Sur 0 996.4 0.7 88
2019-09-28 06:00:00 16.7 3 Nordeste 9 Nordeste 0 996.1 0.3 86
2019-09-28 05:00:00 17.3 6 Norte 10 Norte 0 995.7 0.1 84
2019-09-28 04:00:00 17.6 7 Nordeste 12 Norte 0 995.7 0.6 83
2019-09-28 03:00:00 17.9 6 Norte 12 Nordeste 0 995.8 1.1 77
2019-09-28 02:00:00 18.4 9 Nordeste 12 Nordeste 0 995.6 1.6 74
2019-09-28 01:00:00 19.2 7 Norte 11 Norte 0 995.1 1.6 74
2019-09-28 00:00:00 19.7 8 Nordeste 11 Nordeste 0 994.7 1.7 74
2019-09-27 23:00:00 20.8 3 Noroeste 8 Oeste 0 994 1.6 72
2019-09-27 22:00:00 23 5 Oeste 10 Oeste 0 993.5 1.3 66
2019-09-27 21:00:00 24.3 5 Sudoeste 17 Sur 0 993 0.9 52
2019-09-27 20:00:00 27 7 Oeste 9 Noroeste 0 992.4 0.2 41
2019-09-27 19:00:00 29.6 6 Oeste 12 Oeste 0 992.2 -0.5 36
2019-09-27 18:00:00 30.7 6 Oeste 16 Sudoeste 0 992.1 -1.3 33
2019-09-27 17:00:00 30.2 7 Sudoeste 19 Oeste 0 992.2 -2 34
2019-09-27 16:00:00 29.3 9 Sudoeste 17 Oeste 0 992.7 -2 42
2019-09-27 15:00:00 28 9 Sudoeste 19 Sudoeste 0 993.4 -1.6 49
2019-09-27 14:00:00 27.1 8 Sudoeste 18 Oeste 0 994.2 -1.1 53
2019-09-27 13:00:00 25.7 9 Sudoeste 18 Oeste 0 994.7 -0.5 61
2019-09-27 12:00:00 24.5 4 Oeste 10 Noroeste 0 995 0 60
2019-09-27 11:00:00 21.8 5 Norte 9 Sudeste 0 995.3 0.6 58
2019-09-27 10:00:00 19.4 5 Nordeste 8 Este 0 995.2 0.8 65
2019-09-27 09:00:00 17 2 Este 9 Nordeste 0 995 0.8 75
2019-09-27 08:00:00 15.6 5 Nordeste 12 Norte 0 994.7 0.5 78
2019-09-27 07:00:00 15.5 7 Norte 11 Norte 0 994.4 0.1 80
2019-09-27 06:00:00 15.9 4 Nordeste 11 Este 0 994.2 -0.3 78
2019-09-27 05:00:00 16.6 5 Nordeste 12 Nordeste 0 994.2 -0.6 76
2019-09-27 04:00:00 16.9 8 Nordeste 12 Nordeste 0 994.3 -0.6 76
2019-09-27 03:00:00 16.9 7 Norte 12 Nordeste 0 994.5 -0.4 77
2019-09-27 02:00:00 17.9 6 Nordeste 12 Norte 0 994.8 0.3 74
2019-09-27 01:00:00 18.7 8 Nordeste 12 Nordeste 0 994.9 0.7 72
2019-09-27 00:00:00 19.2 7 Norte 13 Nordeste 0 994.9 1.1 67
2019-09-26 23:00:00 20 5 Nordeste 8 Nordeste 0 994.5 1.3 67
2019-09-26 22:00:00 21.8 4 Noroeste 7 Sudoeste 0 994.2 1.1 58
2019-09-26 21:00:00 22.8 7 Sur 12 Sudoeste 0 993.8 0.4 51
2019-09-26 20:00:00 25.5 5 Norte 8 Nordeste 0 993.2 -0.4 42
2019-09-26 19:00:00 27.8 4 Norte 13 Oeste 0 993.1 -1.1 33
2019-09-26 18:00:00 29 6 Sudoeste 13 Oeste 0 993.4 -1.3 31
2019-09-26 17:00:00 28.6 6 Oeste 15 Oeste 0 993.6 -1.9 33
2019-09-26 16:00:00 27.8 6 Oeste 17 Sur 0 994.2 -2.1 35
2019-09-26 15:00:00 26.9 5 Oeste 16 Oeste 0 994.7 -2 37
2019-09-26 14:00:00 25.4 6 Sur 14 Sudoeste 0 995.5 -1.2 42
2019-09-26 13:00:00 24.1 6 Sur 13 Oeste 0 996.3 0.1 44
2019-09-26 12:00:00 22.2 4 Nordeste 10 Este 0 996.7 1.2 49
2019-09-26 11:00:00 20 4 Sudeste 9 Este 0 996.7 1.6 56
2019-09-26 10:00:00 16.8 7 Nordeste 11 Nordeste 0 996.2 1.5 69
2019-09-26 09:00:00 14.6 5 Nordeste 9 Nordeste 0 995.5 1.1 76
2019-09-26 08:00:00 13.3 6 Nordeste 10 Nordeste 0 995.1 0.8 80
2019-09-26 07:00:00 13.2 5 Nordeste 8 Nordeste 0 994.7 0.7 81
2019-09-26 06:00:00 13.9 5 Nordeste 10 Nordeste 0 994.4 0.3 78
2019-09-26 05:00:00 14.2 3 Norte 8 Norte 0 994.3 0.3 76
2019-09-26 04:00:00 14.7 4 Sudoeste 8 Oeste 0 994 0.1 74
2019-09-26 03:00:00 15.7 6 Oeste 8 Oeste 0 994.1 0.1 68
2019-09-26 02:00:00 16.2 0 Calma 8 Oeste 0 994 0.4 66
2019-09-26 01:00:00 17.1 5 Oeste 8 Oeste 0 993.9 0.7 62
2019-09-26 00:00:00 18 5 Oeste 9 Sudoeste 0 994 1.4 59
2019-09-25 23:00:00 18.3 5 Oeste 9 Oeste 0 993.6 1.5 59
2019-09-25 22:00:00 19.4 5 Sudoeste 9 Sudoeste 0 993.2 1.4 57
2019-09-25 21:00:00 21.1 7 Oeste 14 Oeste 0 992.6 1.1 49
2019-09-25 20:00:00 22.8 9 Oeste 22 Noroeste 0 992.1 0.7 43
2019-09-25 19:00:00 24.4 11 Oeste 27 Oeste 0 991.8 0.2 39
2019-09-25 18:00:00 25.3 15 Oeste 31 Noroeste 0 991.5 -0.3 35
2019-09-25 17:00:00 26.1 18 Oeste 34 Noroeste 0 991.4 -0.9 33
2019-09-25 16:00:00 25.9 19 Oeste 36 Noroeste 0 991.6 -1.1 33
2019-09-25 15:00:00 26 20 Oeste 42 Oeste 0 991.8 -1.4 33
2019-09-25 14:00:00 25.8 17 Oeste 36 Noroeste 0 992.3 -0.9 34
2019-09-25 13:00:00 24.9 20 Oeste 39 Sudoeste 0 992.7 0.1 38
2019-09-25 12:00:00 23.1 15 Oeste 26 Sudoeste 0 993.2 1 49
2019-09-25 11:00:00 20.9 17 Sudoeste 27 Sudoeste 0 993.2 1.9 57
2019-09-25 10:00:00 19.5 11 Sudoeste 27 Oeste 0 992.6 2 65
2019-09-25 09:00:00 18.7 16 Sudoeste 24 Oeste 0 992.2 1.7 68
2019-09-25 08:00:00 18.2 13 Sudoeste 25 Oeste 0 991.3 1.1 71
2019-09-25 07:00:00 19.2 11 Oeste 21 Oeste 0 990.6 0.4 70
2019-09-25 06:00:00 19.3 11 Oeste 20 Oeste 0 990.5 0.3 71
2019-09-25 05:00:00 19.4 7 Oeste 13 Oeste 0 990.2 0 70
2019-09-25 04:00:00 19.9 8 Sudoeste 12 Sudoeste 0 990.2 -0.1 67
2019-09-25 03:00:00 20.2 6 Sudoeste 10 Sudoeste 0 990.2 -0.4 65
2019-09-25 02:00:00 20.2 7 Sudoeste 10 Sudoeste 0 990.2 -0.5 64
2019-09-25 01:00:00 20.3 4 Sudoeste 8 Oeste 0 990.3 -0.2 63
2019-09-25 00:00:00 21.6 4 Sudoeste 8 Sudoeste 0 990.6 0.8 57
2019-09-24 23:00:00 23.3 6 Sur 10 Oeste 0 990.7 1 52
2019-09-24 22:00:00 24.8 5 Sudoeste 17 Noroeste 0 990.5 0.9 46
2019-09-24 21:00:00 25.2 4 Sur 13 Norte 0 989.8 0.2 46
2019-09-24 20:00:00 27.4 4 Noroeste 12 Oeste 0 989.7 -0.1 38
2019-09-24 19:00:00 29.7 8 Oeste 16 Oeste 0 989.6 -0.8 32
2019-09-24 18:00:00 30.5 10 Oeste 21 Noroeste 0 989.6 -1.4 29
2019-09-24 17:00:00 30.9 12 Oeste 22 Oeste 0 989.8 -2.3 28
2019-09-24 16:00:00 29.9 11 Oeste 19 Oeste 0 990.4 -2.6 30
2019-09-24 15:00:00 29.5 9 Oeste 23 Oeste 0 991 -2.6 30
2019-09-24 14:00:00 27.5 8 Sudoeste 22 Oeste 0 992.1 -1.7 36
2019-09-24 13:00:00 25.4 11 Sudoeste 20 Sudoeste 0 993 -0.7 41
2019-09-24 12:00:00 22.5 7 Sudoeste 16 Sudoeste 0 993.6 0.1 51
2019-09-24 11:00:00 20.1 9 Sudoeste 14 Sudoeste 0 993.8 0.2 57
2019-09-24 10:00:00 17.8 4 Sudoeste 6 Sudoeste 0 993.7 0.2 68
2019-09-24 09:00:00 15.4 2 Sudeste 4 Norte 0 993.5 0 73
2019-09-24 08:00:00 12.6 3 Oeste 7 Nordeste 0 993.6 0 83
2019-09-24 07:00:00 13.2 4 Norte 9 Este 0 993.5 -0.4 80
2019-09-24 06:00:00 13.7 4 Este 9 Nordeste 0 993.5 -0.9 78
2019-09-24 05:00:00 13.9 5 Nordeste 8 Nordeste 0 993.6 -0.9 78
2019-09-24 04:00:00 14.5 6 Nordeste 9 Norte 0 993.9 -0.8 76
2019-09-24 03:00:00 15 5 Nordeste 7 Nordeste 0 994.4 -0.7 76
2019-09-24 02:00:00 15.7 4 Norte 7 Sudoeste 0 994.5 -0.4 76
2019-09-24 01:00:00 16.7 7 Oeste 8 Oeste 0 994.7 -0.1 71
2019-09-24 00:00:00 17.2 3 Noroeste 10 Oeste 0 995.1 0.3 65
2019-09-23 23:00:00 17.8 3 Sudoeste 8 Sur 0 994.9 0.6 63
2019-09-23 22:00:00 18.9 4 Sudoeste 6 Sudoeste 0 994.8 0.6 56
2019-09-23 21:00:00 19.8 3 Sudoeste 6 Oeste 0 994.8 0.4 54
2019-09-23 20:00:00 22.9 4 Oeste 11 Noroeste 0 994.3 0.2 44
2019-09-23 19:00:00 25.1 6 Noroeste 18 Noroeste 0 994.2 -0.3 38
2019-09-23 18:00:00 25.8 10 Oeste 20 Noroeste 0 994.4 -0.7 35
2019-09-23 17:00:00 26.7 9 Oeste 18 Sudoeste 0 994.1 -1.6 31
2019-09-23 16:00:00 26.5 7 Oeste 18 Oeste 0 994.5 -1.8 34
2019-09-23 15:00:00 26.2 6 Sudoeste 23 Sudoeste 0 995.1 -1.8 38
2019-09-23 14:00:00 24.9 10 Oeste 21 Sudoeste 0 995.7 -1.4 41
2019-09-23 13:00:00 23.2 7 Sudoeste 16 Sudoeste 0 996.3 -0.4 46
2019-09-23 12:00:00 21.4 5 Sudoeste 11 Oeste 0 996.9 0.6 50
2019-09-23 11:00:00 18.7 3 Sur 7 Sur 0 997.1 1.4 62
2019-09-23 10:00:00 15.1 4 Nordeste 8 Norte 0 996.7 1.8 78
2019-09-23 09:00:00 13.3 5 Nordeste 9 Nordeste 0 996.3 2.2 81
2019-09-23 08:00:00 12.2 4 Nordeste 8 Nordeste 0 995.7 2 84
2019-09-23 07:00:00 12 3 Nordeste 5 Sur 0 994.9 1.5 84
2019-09-23 06:00:00 12.2 5 Sur 6 Sur 0 994.1 0.9 84
2019-09-23 05:00:00 13 4 Sur 7 Sudoeste 0 993.7 1 80
2019-09-23 04:00:00 14.2 6 Oeste 11 Oeste 0 993.4 1.1 74
2019-09-23 03:00:00 15 7 Oeste 12 Oeste 0 993.2 1.2 73
2019-09-23 02:00:00 15.4 5 Sudoeste 11 Sudoeste 0 992.7 1.1 73
2019-09-23 01:00:00 16.3 8 Oeste 12 Oeste 0 992.3 1.3 71
2019-09-23 00:00:00 17.6 6 Sudoeste 13 Oeste 0 992 1.7 69
2019-09-22 23:00:00 18.6 6 Oeste 12 Oeste 0 991.6 2.2 65
2019-09-22 22:00:00 20.6 7 Sudoeste 21 Oeste 0 991 2 57
2019-09-22 21:00:00 21.9 13 Oeste 22 Oeste 0 990.3 2 53
2019-09-22 20:00:00 23.3 8 Oeste 19 Oeste 0 989.4 1.7 57
2019-09-22 19:00:00 24.2 12 Oeste 30 Oeste 0 989 1.4 58
2019-09-22 18:00:00 26.5 18 Oeste 32 Noroeste 0 988.3 0.5 40
2019-09-22 17:00:00 28.9 18 Oeste 34 Noroeste 0 987.7 -0.7 41
2019-09-22 16:00:00 29 13 Oeste 28 Oeste 0 987.6 -1.2 43
2019-09-22 15:00:00 29.1 9 Oeste 20 Sudoeste 0 987.8 -1.3 42
2019-09-22 14:00:00 27.9 9 Oeste 21 Noroeste 0 988.4 -0.9 47
2019-09-22 13:00:00 26.8 11 Sudoeste 19 Sudoeste 0 988.8 -0.4 55
2019-09-22 12:00:00 24.9 5 Oeste 11 Oeste 0 989.1 0.2 63
2019-09-22 11:00:00 22.7 6 Nordeste 15 Este 0 989.3 0.8 71
2019-09-22 10:00:00 20.5 8 Nordeste 15 Nordeste 0 989.2 1.2 79
2019-09-22 09:00:00 18.5 5 Nordeste 12 Nordeste 0 988.9 0.9 87
2019-09-22 08:00:00 17.6 7 Nordeste 12 Nordeste 0 988.5 0.4 90
2019-09-22 07:00:00 17.9 6 Nordeste 14 Nordeste 0 988 -0.6 90
2019-09-22 06:00:00 18 8 Nordeste 16 Nordeste 0 988 -0.9 89
2019-09-22 05:00:00 18.5 7 Nordeste 14 Nordeste 0 988.1 -1.1 87
2019-09-22 04:00:00 18.9 8 Nordeste 16 Este 0 988.6 -0.5 85
2019-09-22 03:00:00 19.2 7 Nordeste 16 Nordeste 0 988.9 -0.2 83
2019-09-22 02:00:00 19.6 8 Nordeste 18 Nordeste 0 989.2 0.2 83
2019-09-22 01:00:00 19.7 8 Nordeste 14 Nordeste 0 989.1 0 84
2019-09-22 00:00:00 20.1 6 Nordeste 14 Nordeste 0 989.1 0.6 83
2019-09-21 23:00:00 20.6 8 Nordeste 15 Nordeste 0 989 1.1 81
2019-09-21 22:00:00 21.3 6 Norte 12 Nordeste 0 989.1 1.3 79
2019-09-21 21:00:00 22.3 5 Nordeste 12 Este 0 988.5 0.9 71
2019-09-21 20:00:00 23.9 8 Este 22 Sudeste 0 987.9 0.2 61
2019-09-21 19:00:00 25.1 12 Este 25 Este 0 987.8 -0.3 59
2019-09-21 18:00:00 26.8 18 Este 32 Este 0 987.6 -1.4 52
2019-09-21 17:00:00 28.1 11 Sudeste 18 Sudeste 0 987.7 -1.8 49
2019-09-21 16:00:00 28.4 4 Noroeste 14 Oeste 0 988.1 -2.1 46
2019-09-21 15:00:00 27.2 9 Noroeste 18 Oeste 0 989 -1.6 45
2019-09-21 14:00:00 26.3 5 Sudoeste 13 Sur 0 989.5 -1 56
2019-09-21 13:00:00 23.8 6 Este 17 Nordeste 0 990.2 -1 66
2019-09-21 12:00:00 21.8 13 Este 21 Este 0 990.6 -0.8 75
2019-09-21 11:00:00 19.4 6 Nordeste 13 Nordeste 0 990.5 -0.5 90
2019-09-21 10:00:00 18.2 8 Nordeste 16 Nordeste 0 991.2 -0.5 93
2019-09-21 09:00:00 18.2 9 Nordeste 14 Este 0 991.4 -0.3 92
2019-09-21 08:00:00 18.2 8 Nordeste 15 Nordeste 3.4 991 -1 92
2019-09-21 07:00:00 19.2 6 Este 15 Nordeste 0 991.7 -1.1 83
2019-09-21 06:00:00 19.1 7 Nordeste 19 Nordeste 0 991.7 -0.9 82
2019-09-21 05:00:00 18.8 9 Nordeste 17 Este 0 992 -1 83
2019-09-21 04:00:00 19.3 7 Nordeste 14 Este 0 992.8 -0.5 81
2019-09-21 03:00:00 19 6 Nordeste 13 Nordeste 0 992.6 -1.1 82
2019-09-21 02:00:00 19.2 7 Nordeste 14 Nordeste 0 993 -0.8 81
2019-09-21 01:00:00 19.7 8 Nordeste 19 Nordeste 0 993.3 -0.5 79
2019-09-21 00:00:00 20.1 9 Nordeste 23 Sudeste 0 993.7 0 77
2019-09-20 23:00:00 21.3 16 Este 28 Este 0 993.8 0.7 70
2019-09-20 22:00:00 22.4 12 Este 21 Sudeste 0 993.8 1.3 58
2019-09-20 21:00:00 22.2 9 Sudeste 17 Sur 0 993.7 1.6 56
2019-09-20 20:00:00 24 12 Sur 24 Sur 0 993.1 0.8 52
2019-09-20 19:00:00 25.8 12 Sur 31 Sur 0 992.5 -0.3 50
2019-09-20 18:00:00 27.9 14 Sur 25 Sudoeste 0 992.1 -1.3 45
2019-09-20 17:00:00 29.1 4 Sur 22 Sudeste 0 992.3 -1.9 39
2019-09-20 16:00:00 29.6 5 Sudeste 23 Sudeste 0 992.8 -2.2 38
2019-09-20 15:00:00 29.7 7 Este 24 Este 0 993.4 -2.5 37
2019-09-20 14:00:00 28.3 10 Este 22 Sudeste 0 994.2 -1.9 41
2019-09-20 13:00:00 27.8 9 Este 21 Este 0 995 -1.1 40
2019-09-20 12:00:00 26 8 Este 17 Este 0 995.9 0.4 47
2019-09-20 11:00:00 23.3 8 Nordeste 16 Nordeste 0 996.1 1.2 57
2019-09-20 10:00:00 19.6 4 Nordeste 13 Nordeste 0 996.1 1.6 71
2019-09-20 09:00:00 18.8 6 Nordeste 13 Nordeste 0 995.5 0.8 73
2019-09-20 08:00:00 17.5 5 Norte 12 Nordeste 0 994.9 0.1 78
2019-09-20 07:00:00 17.3 7 Nordeste 14 Nordeste 0 994.5 -0.4 79
2019-09-20 06:00:00 16.9 7 Nordeste 12 Nordeste 0 994.7 -0.4 81
2019-09-20 05:00:00 17.1 6 Norte 14 Nordeste 0 994.8 -0.4 82
2019-09-20 04:00:00 17.5 6 Nordeste 10 Nordeste 0 994.9 -0.1 81
2019-09-20 03:00:00 18 6 Nordeste 11 Nordeste 0 995.1 0.1 78
2019-09-20 02:00:00 18.6 6 Nordeste 12 Nordeste 0 995.2 0.1 76
2019-09-20 01:00:00 19.2 8 Nordeste 13 Nordeste 0 995 0.2 74
2019-09-20 00:00:00 20.7 7 Nordeste 17 Este 0 995 1.4 67
2019-09-19 23:00:00 22 11 Este 27 Nordeste 0 995.1 2.5 63
2019-09-19 22:00:00 22.5 11 Nordeste 21 Este 0 994.8 3 64
2019-09-19 21:00:00 23.3 6 Sudoeste 13 Sudoeste 0 993.6 1.9 62
2019-09-19 20:00:00 25.5 7 Sudoeste 23 Sur 0 992.6 0.8 53
2019-09-19 19:00:00 27.7 15 Sudoeste 30 Sudoeste 0 991.8 -0.3 49
2019-09-19 18:00:00 30.9 13 Sur 27 Sudoeste 0 991.7 -1.3 42
2019-09-19 17:00:00 31.3 6 Sudoeste 12 Sudoeste 0 991.8 -1.9 34
2019-09-19 16:00:00 30.2 5 Oeste 14 Sudoeste 0 992.1 -2.2 35
2019-09-19 15:00:00 29.7 6 Sur 16 Noroeste 0 993 -1.9 37
2019-09-19 14:00:00 28.4 7 Oeste 14 Sudoeste 0 993.7 -1.3 42
2019-09-19 13:00:00 26.4 6 Sur 15 Oeste 0 994.3 -0.5 52
2019-09-19 12:00:00 25.8 9 Sur 17 Sur 0 994.9 0.4 54
2019-09-19 11:00:00 24.8 4 Sur 10 Sudoeste 0 995 0.9 55
2019-09-19 10:00:00 22.4 3 Sudeste 5 Sudeste 0 994.8 1.1 60
2019-09-19 09:00:00 18.8 0 Calma 6 Oeste 0 994.5 1.2 75
2019-09-19 08:00:00 17.5 3 Oeste 6 Sudoeste 0 994.1 1 77
2019-09-19 07:00:00 18.3 3 Este 8 Este 0 993.7 0.6 73
2019-09-19 06:00:00 18.1 4 Este 12 Nordeste 0 993.3 0 73
2019-09-19 05:00:00 18.6 4 Nordeste 8 Nordeste 0 993.1 -0.3 72
2019-09-19 04:00:00 19.3 6 Nordeste 10 Nordeste 0 993.1 -0.3 68
2019-09-19 03:00:00 20.2 6 Nordeste 13 Nordeste 0 993.3 0 64
2019-09-19 02:00:00 20.5 5 Norte 10 Nordeste 0 993.4 0.2 64
2019-09-19 01:00:00 20.8 7 Nordeste 12 Nordeste 0 993.4 1 63
2019-09-19 00:00:00 21.8 8 Norte 12 Nordeste 0 993.3 1.4 60
2019-09-18 23:00:00 23.2 6 Norte 19 Nordeste 0 993.2 2.3 50
2019-09-18 22:00:00 24.2 8 Noroeste 14 Oeste 0 992.4 1.1 45
2019-09-18 21:00:00 24.9 4 Sur 21 Sudoeste 0 991.9 1.1 45
2019-09-18 20:00:00 26.8 6 Norte 32 Sudoeste 0 990.9 0.1 39
2019-09-18 19:00:00 28.5 9 Sudoeste 26 Sudoeste 0 991.3 0.1 43
2019-09-18 18:00:00 30.6 6 Sudoeste 17 Sudoeste 0 990.8 -1 37
2019-09-18 17:00:00 31 8 Sudoeste 23 Oeste 0 990.8 -1.6 35
2019-09-18 16:00:00 30.4 9 Oeste 19 Oeste 0 991.2 -1.9 38
2019-09-18 15:00:00 29.3 8 Sudoeste 17 Sudoeste 0 991.8 -1.4 43
2019-09-18 14:00:00 28.2 7 Oeste 14 Sudoeste 0 992.4 -0.9 45
2019-09-18 13:00:00 27.2 5 Sudoeste 10 Sur 0 993.1 0.3 48
2019-09-18 12:00:00 25.2 4 Noroeste 15 Sudoeste 0 993.2 1.1 51
2019-09-18 11:00:00 24 6 Sur 10 Sur 0 993.3 1.9 56
2019-09-18 10:00:00 20.8 2 Norte 5 Norte 0 992.8 1.8 66
2019-09-18 09:00:00 17.7 0 Calma 5 Nordeste 0 992.1 1 79
2019-09-18 08:00:00 16.2 3 Este 8 Nordeste 0 991.4 0.5 83
2019-09-18 07:00:00 16.9 5 Norte 7 Nordeste 0 991 0.1 81
2019-09-18 06:00:00 17 2 Sur 5 Sur 0 991.1 -0.4 80
2019-09-18 05:00:00 17.9 3 Sudeste 9 Norte 0 990.9 -0.9 77
2019-09-18 04:00:00 18.4 5 Norte 14 Nordeste 0 990.9 -1.3 76
2019-09-18 03:00:00 19.1 8 Nordeste 12 Nordeste 0 991.5 -0.9 73
2019-09-18 02:00:00 19.9 5 Nordeste 13 Nordeste 0 991.8 -0.2 70
2019-09-18 01:00:00 20.4 3 Este 8 Nordeste 0 992.2 0.9 68
2019-09-18 00:00:00 21.7 7 Nordeste 11 Nordeste 0 992.4 2.1 62
2019-09-17 23:00:00 22.2 2 Noroeste 6 Sudoeste 0 992 2.4 59
2019-09-17 22:00:00 22.9 4 Sudoeste 8 Oeste 0 991.3 1.5 59
2019-09-17 21:00:00 25.3 5 Sudoeste 12 Sudoeste 0 990.3 0.1 50